23 de maio de 2022

Tempo Código Clima Temp. Visão Nuvens Vento METAR/SPECI
10:50
V
21 °C 10 km+ - 130°   130° 9 kt METAR EDLW 230850Z 13009KT 100V160 CAVOK 21/11 Q1003
10:20
V
20 °C 10 km+ - 140°   140° 7 kt METAR EDLW 230820Z 14007KT 100V170 CAVOK 20/10 Q1003
09:50
V
20 °C 10 km+ - 110°   110° 6 kt METAR EDLW 230750Z 11006KT 080V140 CAVOK 20/12 Q1003
09:20
V
20 °C 10 km+ - 110°   110° 6 kt METAR EDLW 230720Z 11006KT 070V150 CAVOK 20/10 Q1004
08:50
V
19 °C 10 km+ - 070°   070° 4 kt METAR EDLW 230650Z 07004KT 030V100 CAVOK 19/12 Q1004
08:20
V
16 °C 10 km+ - 030°   030° 3 kt METAR EDLW 230620Z 03003KT CAVOK 16/12 Q1005
07:50
V
15 °C 10 km+ - Var   Var 1 kt METAR EDLW 230550Z VRB01KT CAVOK 15/12 Q1005
07:20
V
14 °C 10 km+ - 010°   010° 2 kt METAR EDLW 230520Z 01002KT CAVOK 14/11 Q1005
06:50
V
13 °C 10 km+ - 040°   040° 2 kt METAR EDLW 230450Z 04002KT CAVOK 13/11 Q1005
06:20
V
13 °C 10 km+ - 340°   340° 2 kt METAR EDLW 230420Z 34002KT CAVOK 13/11 Q1006
05:50
V
16 °C 10 km+ - 090°   090° 4 kt METAR EDLW 230350Z 09004KT 030V140 CAVOK 16/10 Q1006
05:20
V
13 °C 10 km+ - Var   Var 2 kt METAR EDLW 230320Z VRB02KT CAVOK 13/10 Q1007
04:50
V
14 °C 10 km+ - 060°   060° 2 kt METAR EDLW 230250Z AUTO 06002KT 9999 // FEW035/// 14/10 Q1007
04:20
V
14 °C 10 km+ - 100°   100° 3 kt METAR EDLW 230220Z AUTO 10003KT 9999 // FEW041/// SCT120/// 14/10 Q1007
03:50
V
13 °C 10 km+ - 090°   090° 2 kt METAR EDLW 230150Z AUTO 09002KT 9999 // FEW100/// 13/11 Q1008
03:20
V
13 °C 10 km+ - Var   000° 0 kt METAR EDLW 230120Z AUTO 00000KT 9999 // FEW100/// 13/11 Q1008
02:50
V
13 °C 10 km+ - 040°   040° 3 kt METAR EDLW 230050Z AUTO 04003KT 9999 // FEW096/// SCT130/// 13/11 Q1009
02:20
V
13 °C 10 km+ - 040°   040° 3 kt METAR EDLW 230020Z AUTO 04003KT 9999 // FEW120/// 13/10 Q1009
01:50
V
13 °C 10 km+ - 070°   070° 4 kt METAR EDLW 222350Z AUTO 07004KT 9999 // FEW160/// 13/10 Q1009
01:20
V
14 °C 10 km+ - 040°   040° 1 kt METAR EDLW 222320Z AUTO 04001KT 9999 // FEW160/// 14/10 Q1009
00:50
V
14 °C 10 km+ - 060°   060° 3 kt METAR EDLW 222250Z AUTO 06003KT 9999 // FEW170/// 14/10 Q1009
00:20
V
15 °C 10 km+ - 070°   070° 3 kt METAR EDLW 222220Z AUTO 07003KT 9999 // FEW170/// 15/10 Q1010

22 de maio de 2022

Tempo Código Clima Temp. Visão Nuvens Vento METAR/SPECI
23:50
V
15 °C 10 km+ - 070°   070° 5 kt METAR EDLW 222150Z AUTO 07005KT 9999 // FEW210/// 15/10 Q1010
23:20
V
14 °C 10 km+ - 070°   070° 5 kt METAR EDLW 222120Z AUTO 07005KT 9999 // FEW220/// 14/10 Q1010
22:50
V
15 °C 10 km+ - 070°   070° 6 kt METAR EDLW 222050Z 07006KT CAVOK 15/09 Q1010
22:20
V
16 °C 10 km+ - 070°   070° 5 kt METAR EDLW 222020Z 07005KT CAVOK 16/10 Q1011
21:50
V
16 °C 10 km+ - 060°   060° 6 kt METAR EDLW 221950Z 06006KT CAVOK 16/10 Q1011
21:20
V
17 °C 10 km+ - 060°   060° 7 kt METAR EDLW 221920Z 06007KT CAVOK 17/10 Q1011
20:50
V
18 °C 10 km+ - 050°   050° 6 kt METAR EDLW 221850Z 05006KT CAVOK 18/10 Q1011
20:20
V
18 °C 10 km+ - 050°   050° 7 kt METAR EDLW 221820Z 05007KT CAVOK 18/10 Q1012
19:50
V
19 °C 10 km+ - 050°   050° 8 kt METAR EDLW 221750Z 05008KT CAVOK 19/10 Q1012
19:20
V
19 °C 10 km+ - 050°   050° 6 kt METAR EDLW 221720Z 05006KT CAVOK 19/10 Q1012
18:50
V
20 °C 10 km+ - 080°   080° 6 kt METAR EDLW 221650Z 08006KT CAVOK 20/10 Q1012
18:20
V
20 °C 10 km+ - 090°   090° 6 kt METAR EDLW 221620Z 09006KT 9999 FEW047 20/10 Q1013
17:50
V
20 °C 10 km+ - 060°   060° 5 kt METAR EDLW 221550Z 06005KT 9999 FEW046 20/09 Q1013
17:20
V
20 °C 10 km+ - Var   Var 3 kt METAR EDLW 221520Z VRB03KT CAVOK 20/10 Q1013
16:50
V
20 °C 10 km+ - Var   Var 4 kt METAR EDLW 221450Z VRB04KT 9999 SCT046 20/10 Q1013
16:20
V
21 °C 10 km+ - 020°   020° 5 kt METAR EDLW 221420Z 02005KT 300V100 9999 SCT048 21/10 Q1014
15:50
V
20 °C 10 km+ - 030°   030° 5 kt METAR EDLW 221350Z 03005KT 300V080 CAVOK 20/09 Q1014
15:20
V
20 °C 10 km+ - Var   Var 4 kt METAR EDLW 221320Z VRB04KT 9999 FEW047 20/09 Q1014
14:50
V
19 °C 10 km+ - 030°   030° 4 kt METAR EDLW 221250Z 03004KT 350V100 9999 SCT043 19/09 Q1015
14:20
V
18 °C 10 km+ - 040°   040° 5 kt METAR EDLW 221220Z 04005KT 360V070 9999 FEW041 18/09 Q1015
13:50
V
19 °C 10 km+ - Var   Var 4 kt METAR EDLW 221150Z VRB04KT 9999 SCT041 19/10 Q1015
13:20
V
20 °C 10 km+ - Var   Var 3 kt METAR EDLW 221120Z VRB03KT 9999 SCT040 20/09 Q1016
12:50
V
19 °C 10 km+ - 300°   300° 3 kt METAR EDLW 221050Z 30003KT 240V040 9999 SCT043 19/09 Q1016
12:20
V
18 °C 10 km+ - Var   Var 3 kt METAR EDLW 221020Z VRB03KT CAVOK 18/09 Q1016
11:50
V
18 °C 10 km+ - 030°   030° 5 kt METAR EDLW 220950Z 03005KT 310V070 CAVOK 18/09 Q1016
11:20
V
17 °C 10 km+ - Var   Var 3 kt METAR EDLW 220920Z VRB03KT CAVOK 17/10 Q1017
10:50
V
16 °C 10 km+ - 010°   010° 5 kt METAR EDLW 220850Z 01005KT 290V070 CAVOK 16/10 Q1017
10:20
V
15 °C 10 km+ - 040°   040° 5 kt METAR EDLW 220820Z 04005KT 350V070 9999 FEW046 15/10 Q1017
09:50
V
15 °C 10 km+ - 040°   040° 6 kt METAR EDLW 220750Z 04006KT 010V080 9999 FEW047 15/09 Q1017
09:20
V
15 °C 10 km+ - 070°   070° 5 kt METAR EDLW 220720Z 07005KT 040V110 CAVOK 15/10 Q1017
08:50
V
13 °C 10 km+ - 050°   050° 4 kt METAR EDLW 220650Z 05004KT 020V080 9999 SCT040 13/10 Q1017
08:20
V
12 °C 10 km+ 3.900 ft Var   Var 2 kt METAR EDLW 220620Z VRB02KT 9999 BKN039 BKN045 12/10 Q1017
07:50
V
11 °C 10 km+ 3.800 ft Var   Var 2 kt METAR EDLW 220550Z VRB02KT 9999 BKN038 11/10 Q1017
07:20
V
10 °C 10 km+ 4.700 ft Var   Var 2 kt METAR EDLW 220520Z VRB02KT 9999 SCT038 BKN047 10/09 Q1018
06:50
V
10 °C 10 km+ - 080°   080° 4 kt METAR EDLW 220450Z 08004KT 9999 FEW043 10/09 Q1017
06:20
V
10 °C 10 km+ - 110°   110° 5 kt METAR EDLW 220420Z 11005KT 9999 FEW039 10/09 Q1017
05:50
V
9 °C 10 km+ - 120°   120° 4 kt METAR EDLW 220350Z 12004KT 9999 SCT044 09/08 Q1018
05:20
V
10 °C 10 km+ - 130°   130° 3 kt METAR EDLW 220320Z 13003KT 9999 FEW030 10/08 Q1018
04:50
V
10 °C 10 km+ - 140°   140° 4 kt METAR EDLW 220250Z AUTO 14004KT 9999 // SCT055/// 10/08 Q1018
04:20
V
10 °C 10 km+ - 150°   150° 4 kt METAR EDLW 220220Z AUTO 15004KT 9999 // FEW057/// 10/08 Q1018
03:50
V
10 °C 10 km+ - 150°   150° 4 kt METAR EDLW 220150Z AUTO 15004KT 9999 // FEW055/// 10/08 Q1018
03:20
V
11 °C 10 km+ - 100°   100° 3 kt METAR EDLW 220120Z AUTO 10003KT 9999 // FEW056/// SCT220/// 11/08 Q1019
02:50
V
11 °C 10 km+ 22.000 ft 150°   150° 3 kt METAR EDLW 220050Z AUTO 15003KT 9999 // SCT055/// BKN220/// 11/09 Q1019
02:20
V
11 °C 10 km+ - 150°   150° 3 kt METAR EDLW 220020Z AUTO 15003KT 9999 // FEW220/// 11/08 Q1019
01:50
V
11 °C 10 km+ - Var   000° 0 kt METAR EDLW 212350Z AUTO 00000KT 9999 // FEW220/// 11/08 Q1019
01:20
V
11 °C 10 km+ - 020°   020° 2 kt METAR EDLW 212320Z AUTO 02002KT 9999 // FEW220/// 11/08 Q1019
00:50
V
12 °C 10 km+ - 040°   040° 3 kt METAR EDLW 212250Z AUTO 04003KT 9999 // FEW220/// 12/09 Q1019
00:20
V
12 °C 10 km+ - Var   Var 2 kt METAR EDLW 212220Z AUTO VRB02KT 9999 // FEW230/// 12/08 Q1019

21 de maio de 2022

Tempo Código Clima Temp. Visão Nuvens Vento METAR/SPECI
23:50
V
12 °C 10 km+ - Var   Var 2 kt METAR EDLW 212150Z AUTO VRB02KT 9999 // FEW042/// SCT230/// 12/08 Q1020
23:20
V
13 °C 10 km+ - Var   000° 0 kt METAR EDLW 212120Z AUTO 00000KT 9999 // FEW044/// SCT050/// 13/08 Q1020
22:50
V
13 °C 10 km+ - Var   000° 0 kt METAR EDLW 212050Z AUTO 00000KT 9999 // SCT043/// 13/09 Q1020
22:20
V
14 °C 10 km+ - Var   000° 0 kt METAR EDLW 212020Z 00000KT 9999 FEW046 14/09 Q1020
21:50
V
14 °C 10 km+ - Var   Var 2 kt METAR EDLW 211950Z VRB02KT 9999 FEW044 14/09 Q1020
21:20
V
15 °C 10 km+ - Var   Var 2 kt METAR EDLW 211920Z VRB02KT 9999 FEW044 15/09 Q1019
20:50
V
15 °C 10 km+ - Var   Var 1 kt METAR EDLW 211850Z VRB01KT 9999 FEW043 15/10 Q1019
20:20
V
16 °C 10 km+ - Var   Var 2 kt METAR EDLW 211820Z VRB02KT 9999 FEW041 16/10 Q1019
19:50
V
16 °C 10 km+ - 260°   260° 3 kt METAR EDLW 211750Z 26003KT 230V350 9999 FEW043 16/10 Q1019
19:20
V
16 °C 10 km+ - 250°   250° 5 kt METAR EDLW 211720Z 25005KT 220V300 9999 SCT043 16/09 Q1019
18:50
V
17 °C 10 km+ 4.900 ft 250°   250° 5 kt METAR EDLW 211650Z 25005KT 210V310 9999 SCT042 BKN049 17/10 Q1020
18:20
V
17 °C 10 km+ - 250°   250° 7 kt METAR EDLW 211620Z 25007KT 220V280 9999 SCT042 17/10 Q1020
17:50
V
17 °C 10 km+ - 240°   240° 8 kt METAR EDLW 211550Z 24008KT 9999 SCT04 17/10 Q1020
17:20
V
17 °C 10 km+ - 240°   240° 8 kt METAR EDLW 211520Z 24008KT 220V290 9999 SCT041 17/09 Q1020
16:50
V
17 °C 10 km+ - 250°   250° 8 kt METAR EDLW 211450Z 25008KT 230V300 9999 SCT041 17/10 Q1020
16:20
V
17 °C 10 km+ - 230°   230° 11 kt METAR EDLW 211420Z 23011KT 200V260 CAVOK 17/09 Q1021
15:50
V
17 °C 10 km+ - 240°   240° 12 kt METAR EDLW 211350Z 24012KT 9999 FEW037 17/10 Q1021
15:20
V
16 °C 10 km+ - 230°   230° 10 kt METAR EDLW 211320Z 23010KT 9999 SCT036 16/10 Q1021
14:50
V
17 °C 10 km+ - 230°   230° 10 kt METAR EDLW 211250Z 23010KT 9999 FEW038 17/11 Q1021
14:20
V
16 °C 10 km+ - 240°   240° 10 kt METAR EDLW 211220Z 24010KT 9999 FEW032 16/10 Q1021
13:50
V
16 °C 10 km+ - 230°   230° 11 kt METAR EDLW 211150Z 23011KT 9999 SCT032 16/10 Q1021
13:20
V
15 °C 10 km+ - 230°   230° 11 kt METAR EDLW 211120Z 23011KT 9999 SCT030 15/10 Q1021
12:50
V
16 °C 10 km+ - 230°   230° 13 kt METAR EDLW 211050Z 23013KT 200V280 9999 FEW022 SCT025 16/10 Q1021
12:20
V
16 °C 10 km+ - 220°   220° 14 kt METAR EDLW 211020Z 22014KT 9999 FEW015 SCT021 16/11 Q1021
11:50
V
15 °C 10 km+ - 230°   230° 13 kt METAR EDLW 210950Z 23013KT 9999 SCT020 SCT023 15/11 Q1021
11:20
M
13 °C 10 km+ 2.400 ft 240°   240° 11 kt METAR EDLW 210920Z 24011KT 9999 FEW015 SCT019 OVC024 13/09 Q1021
10:50
M
13 °C 10 km+ 2.800 ft 230°   230° 13 kt METAR EDLW 210850Z 23013KT 9999 SCT019 BKN028 13/09 Q1021
Dados mais antigos

Baixe nosso aplicativo

Fácil acesso a todas as condições meteorológicas da aviação no seu celular e no seu tablet.
Com muitos recursos não disponíveis no site, como suporte offline e uma lista pessoal de aeroportos.

Nós e terceiros acompanhamos seu comportamento na internet em nosso site com cookies. Se você continuar, nós assumimos que você concorda com nossa política de cookies. Saiba mais